Stella Polaris — PEBD — position and weather

sailwx.info

Track history (hours):
 
Tides and Currents Weather Stations Pressure Air Temp Water Temp Dewpoint Dewpoint Depression Visibility Wind Speed Wind Dir Waves Ship Positions

Stella Polaris

Last reported at 2014-Oct-20 22:33 UTC. Time now 2014-Oct-24 10:26 UTC.
Position N 55°34' E 015°11'.

Length 117 m; draft 5.1 m.

Type: Ship (hazmat cat A). MMSI: 245911000.

Date/timePositionNaut miles runAvg speedWind from/ knotsBaromVisibWave heightAir tempDewpointWater temp
2014-Oct-20 22:33N 55°34' E 015°11'1414.5
2014-Oct-20 21:33N 55°27' E 014°49'1414.1
2014-Oct-20 20:33N 55°18' E 014°30'1313.1
2014-Oct-20 19:34N 55°10' E 014°12'1414.1
2014-Oct-20 18:33N 55°11' E 013°47'3214.2
2014-Oct-20 16:19N 55°15' E 012°52'1011.4
2014-Oct-20 15:25N 55°23' E 012°39'1414.2
2014-Oct-20 14:25N 55°35' E 012°51'7 1.7
2014-Oct-20 10:19N 55°38' E 013°01'0 0.0
2014-Oct-20 08:32N 55°38' E 013°01'0 0.0
2014-Oct-20 07:33N 55°38' E 013°01'0 0.0
2014-Oct-20 06:26N 55°38' E 013°01'0 0.0
2014-Oct-20 05:30N 55°38' E 013°01'1 0.8
2014-Oct-20 04:24N 55°39' E 013°00'3 4.0
2014-Oct-20 03:33N 55°42' E 012°57'0 0.0
2014-Oct-20 02:30N 55°41' E 012°57'0 0.1
2014-Oct-20 01:33N 55°41' E 012°57'0 0.0
2014-Oct-20 00:31N 55°41' E 012°57'0 0.0
2014-Oct-19 23:31N 55°41' E 012°57'0 0.0
2014-Oct-19 22:31N 55°41' E 012°57'0 0.1
2014-Oct-19 21:33N 55°41' E 012°57'0 0.1
2014-Oct-19 20:33N 55°41' E 012°57'0 0.0
2014-Oct-19 19:33N 55°41' E 012°57'0 0.0
2014-Oct-19 18:32N 55°41' E 012°57'6 6.1
2014-Oct-19 17:33N 55°46' E 012°50'1514.7
2014-Oct-19 16:30N 56°00' E 012°40'1313.1
2014-Oct-19 15:32N 56°09' E 012°24'1110.9
2014-Oct-19 14:33N 56°15' E 012°08'10 9.2
2014-Oct-19 13:31N 56°24' E 012°00'8510.7
2014-Oct-19 05:33N 57°41' E 010°56'1413.7
2014-Oct-19 04:33N 57°48' E 010°34'1715.2
2014-Oct-19 03:25N 57°44' E 010°03'4615.2
2014-Oct-19 00:22N 57°21' E 008°48'1814.9
2014-Oct-18 23:10N 57°11' E 008°19'1015.0
2014-Oct-18 22:30N 57°03' E 008°10'1714.9
2014-Oct-18 21:20N 56°48' E 007°53'1214.7
2014-Oct-18 20:32N 56°38' E 007°42'1614.4
2014-Oct-18 19:23N 56°25' E 007°25'1714.4
2014-Oct-18 18:14N 56°11' E 007°09'1114.3
2014-Oct-18 17:30N 56°02' E 006°59'1414.3
2014-Oct-18 16:33N 55°50' E 006°46'1714.3
2014-Oct-18 15:22N 55°36' E 006°30'10414.4
2014-Oct-18 08:09N 54°08' E 004°52'16613.2
2014-Oct-17 19:33N 51°30' E 003°28'1110.7
2014-Oct-17 18:33N 51°25' E 003°43'7 6.4
2014-Oct-17 17:32N 51°20' E 003°49'6 6.2
2014-Oct-17 16:31N 51°13' E 003°48'1 0.8
2014-Oct-17 15:07N 51°12' E 003°48'0 0.0
2014-Oct-17 14:28N 51°12' E 003°48'0 0.0
2014-Oct-17 13:28N 51°12' E 003°48'0 0.0
2014-Oct-17 12:27N 51°12' E 003°48'0 0.0
2014-Oct-17 11:27N 51°12' E 003°48'0 0.0
2014-Oct-17 10:29N 51°12' E 003°48'0 0.0
2014-Oct-17 08:29N 51°12' E 003°48'0 0.0
2014-Oct-17 07:28N 51°12' E 003°48'0 0.0
2014-Oct-17 05:15N 51°12' E 003°48'0 0.0
2014-Oct-17 04:24N 51°12' E 003°48'0 0.0
2014-Oct-17 02:26N 51°12' E 003°48'0 0.0
2014-Oct-17 01:13N 51°12' E 003°48'0 0.0
2014-Oct-17 00:13N 51°12' E 003°48'0 0.0
2014-Oct-16 23:28N 51°12' E 003°48'0 0.0
2014-Oct-16 22:29N 51°12' E 003°48'0 0.0
2014-Oct-16 21:27N 51°12' E 003°48'0 0.0
2014-Oct-16 20:26N 51°12' E 003°48'0 0.0
2014-Oct-16 19:26N 51°12' E 003°48'0 0.0
2014-Oct-16 18:13N 51°12' E 003°48'0 0.0
2014-Oct-16 16:24N 51°12' E 003°48'0 0.0
2014-Oct-16 15:30N 51°12' E 003°48'0 0.1
2014-Oct-16 09:32N 51°13' E 003°48'6 6.0
2014-Oct-16 08:33N 51°18' E 003°50'3 2.7
2014-Oct-16 07:32N 51°21' E 003°48'9 9.3
2014-Oct-16 06:34N 51°26' E 003°36'3014.8
2014-Oct-16 04:33N 51°22' E 002°49'1413.7
2014-Oct-16 03:33N 51°21' E 002°27'1414.4
2014-Oct-16 02:33N 51°14' E 002°06'1413.8
2014-Oct-16 01:33N 51°07' E 001°48'6512.9
2014-Oct-15 20:32N 50°24' E 000°31'  
Track history (hours):
 
Tides and Currents Weather Stations Pressure Air Temp Water Temp Dewpoint Dewpoint Depression Visibility Wind Speed Wind Dir Waves Ship Positions

Stella Polaris

Last reported at 2014-Oct-20 22:33 UTC. Time now 2014-Oct-24 10:26 UTC.
Position N 55°34' E 015°11'.

Length 117 m; draft 5.1 m.

Type: Ship (hazmat cat A). MMSI: 245911000.

Date/timePositionNaut miles runAvg speedWind from/ knotsBaromVisibWave heightAir tempDewpointWater temp
2014-Oct-20 22:33N 55°34' E 015°11'1414.5
2014-Oct-20 21:33N 55°27' E 014°49'1414.1
2014-Oct-20 20:33N 55°18' E 014°30'1313.1
2014-Oct-20 19:34N 55°10' E 014°12'1414.1
2014-Oct-20 18:33N 55°11' E 013°47'3214.2
2014-Oct-20 16:19N 55°15' E 012°52'1011.4
2014-Oct-20 15:25N 55°23' E 012°39'1414.2
2014-Oct-20 14:25N 55°35' E 012°51'7 1.7
2014-Oct-20 10:19N 55°38' E 013°01'0 0.0
2014-Oct-20 08:32N 55°38' E 013°01'0 0.0
2014-Oct-20 07:33N 55°38' E 013°01'0 0.0
2014-Oct-20 06:26N 55°38' E 013°01'0 0.0
2014-Oct-20 05:30N 55°38' E 013°01'1 0.8
2014-Oct-20 04:24N 55°39' E 013°00'3 4.0
2014-Oct-20 03:33N 55°42' E 012°57'0 0.0
2014-Oct-20 02:30N 55°41' E 012°57'0 0.1
2014-Oct-20 01:33N 55°41' E 012°57'0 0.0
2014-Oct-20 00:31N 55°41' E 012°57'0 0.0
2014-Oct-19 23:31N 55°41' E 012°57'0 0.0
2014-Oct-19 22:31N 55°41' E 012°57'0 0.1
2014-Oct-19 21:33N 55°41' E 012°57'0 0.1
2014-Oct-19 20:33N 55°41' E 012°57'0 0.0
2014-Oct-19 19:33N 55°41' E 012°57'0 0.0
2014-Oct-19 18:32N 55°41' E 012°57'6 6.1
2014-Oct-19 17:33N 55°46' E 012°50'1514.7
2014-Oct-19 16:30N 56°00' E 012°40'1313.1
2014-Oct-19 15:32N 56°09' E 012°24'1110.9
2014-Oct-19 14:33N 56°15' E 012°08'10 9.2
2014-Oct-19 13:31N 56°24' E 012°00'8510.7
2014-Oct-19 05:33N 57°41' E 010°56'1413.7
2014-Oct-19 04:33N 57°48' E 010°34'1715.2
2014-Oct-19 03:25N 57°44' E 010°03'4615.2
2014-Oct-19 00:22N 57°21' E 008°48'1814.9
2014-Oct-18 23:10N 57°11' E 008°19'1015.0
2014-Oct-18 22:30N 57°03' E 008°10'1714.9
2014-Oct-18 21:20N 56°48' E 007°53'1214.7
2014-Oct-18 20:32N 56°38' E 007°42'1614.4
2014-Oct-18 19:23N 56°25' E 007°25'1714.4
2014-Oct-18 18:14N 56°11' E 007°09'1114.3
2014-Oct-18 17:30N 56°02' E 006°59'1414.3
2014-Oct-18 16:33N 55°50' E 006°46'1714.3
2014-Oct-18 15:22N 55°36' E 006°30'10414.4
2014-Oct-18 08:09N 54°08' E 004°52'16613.2
2014-Oct-17 19:33N 51°30' E 003°28'1110.7
2014-Oct-17 18:33N 51°25' E 003°43'7 6.4
2014-Oct-17 17:32N 51°20' E 003°49'6 6.2
2014-Oct-17 16:31N 51°13' E 003°48'1 0.8
2014-Oct-17 15:07N 51°12' E 003°48'0 0.0
2014-Oct-17 14:28N 51°12' E 003°48'0 0.0
2014-Oct-17 13:28N 51°12' E 003°48'0 0.0
2014-Oct-17 12:27N 51°12' E 003°48'0 0.0
2014-Oct-17 11:27N 51°12' E 003°48'0 0.0
2014-Oct-17 10:29N 51°12' E 003°48'0 0.0
2014-Oct-17 08:29N 51°12' E 003°48'0 0.0
2014-Oct-17 07:28N 51°12' E 003°48'0 0.0
2014-Oct-17 05:15N 51°12' E 003°48'0 0.0
2014-Oct-17 04:24N 51°12' E 003°48'0 0.0
2014-Oct-17 02:26N 51°12' E 003°48'0 0.0
2014-Oct-17 01:13N 51°12' E 003°48'0 0.0
2014-Oct-17 00:13N 51°12' E 003°48'0 0.0
2014-Oct-16 23:28N 51°12' E 003°48'0 0.0
2014-Oct-16 22:29N 51°12' E 003°48'0 0.0
2014-Oct-16 21:27N 51°12' E 003°48'0 0.0
2014-Oct-16 20:26N 51°12' E 003°48'0 0.0
2014-Oct-16 19:26N 51°12' E 003°48'0 0.0
2014-Oct-16 18:13N 51°12' E 003°48'0 0.0
2014-Oct-16 16:24N 51°12' E 003°48'0 0.0
2014-Oct-16 15:30N 51°12' E 003°48'0 0.1
2014-Oct-16 09:32N 51°13' E 003°48'6 6.0
2014-Oct-16 08:33N 51°18' E 003°50'3 2.7
2014-Oct-16 07:32N 51°21' E 003°48'9 9.3
2014-Oct-16 06:34N 51°26' E 003°36'3014.8
2014-Oct-16 04:33N 51°22' E 002°49'1413.7
2014-Oct-16 03:33N 51°21' E 002°27'1414.4
2014-Oct-16 02:33N 51°14' E 002°06'1413.8
2014-Oct-16 01:33N 51°07' E 001°48'6512.9
2014-Oct-15 20:32N 50°24' E 000°31'  

Dump ship's entire track history